Time;durP1;ratioP1;P1;durP2;ratioP2;P2;SDS_P1;SDS_P2;PMS_P1;PMS_P2;Temp;Humidity;BMP_temperature;BMP_pressure;BME280_temperature;BME280_humidity;BME280_pressure;Samples;Min_cycle;Max_cycle;Signal;HPM_P1;HPM_P2
2023/02/04 00:00:25;;;;;;;48.25;36.23;;;24.50;96.30;;;;;;1934157;73;21142;-81
2023/02/04 00:02:56;;;;;;;43.08;33.05;;;24.40;96.30;;;;;;1903786;74;21081;-83
2023/02/04 00:05:26;;;;;;;46.28;33.40;;;24.40;96.30;;;;;;1924049;73;21119;-82
2023/02/04 00:07:57;;;;;;;39.73;31.82;;;24.50;96.30;;;;;;1933660;73;21232;-82
2023/02/04 00:10:29;;;;;;;43.17;31.82;;;24.50;96.40;;;;;;1936080;73;21533;-81
2023/02/04 00:13:01;;;;;;;38.35;31.20;;;24.50;96.50;;;;;;1929136;73;21092;-82
2023/02/04 00:15:31;;;;;;;38.50;30.55;;;24.40;96.40;;;;;;1924320;73;21147;-82
2023/02/04 00:18:02;;;;;;;40.52;31.45;;;24.50;96.90;;;;;;1953654;73;21652;-82
2023/02/04 00:20:33;;;;;;;38.55;30.97;;;24.50;96.60;;;;;;1934716;73;21138;-83
2023/02/04 00:23:04;;;;;;;40.17;31.77;;;24.40;96.60;;;;;;1928517;73;21666;-83
2023/02/04 00:25:35;;;;;;;37.90;31.48;;;24.40;96.80;;;;;;1922216;73;21132;-84
2023/02/04 00:28:06;;;;;;;39.38;31.15;;;24.40;96.90;;;;;;1941263;73;21111;-86
2023/02/04 00:30:36;;;;;;;36.42;31.20;;;24.30;97.00;;;;;;1934734;73;21197;-83
2023/02/04 00:33:07;;;;;;;44.20;33.33;;;24.30;97.10;;;;;;1931007;73;21131;-81
2023/02/04 00:35:38;;;;;;;42.98;32.13;;;24.30;97.10;;;;;;1931179;73;21144;-81
2023/02/04 00:38:09;;;;;;;41.05;33.30;;;24.30;97.20;;;;;;1940540;73;21193;-81
2023/02/04 00:40:40;;;;;;;41.70;33.23;;;24.30;97.20;;;;;;1930145;73;21136;-81
2023/02/04 00:43:10;;;;;;;37.38;29.18;;;24.30;97.20;;;;;;1868693;75;21104;-81
2023/02/04 00:45:41;;;;;;;49.38;36.65;;;24.30;97.10;;;;;;1939517;73;21132;-82
2023/02/04 00:48:12;;;;;;;39.80;31.80;;;24.40;97.10;;;;;;1955378;73;21133;-82
2023/02/04 00:50:43;;;;;;;43.42;32.73;;;24.40;96.90;;;;;;1929880;73;21180;-82
2023/02/04 00:53:13;;;;;;;44.42;32.10;;;24.50;96.70;;;;;;1923607;73;21306;-71
2023/02/04 00:55:47;;;;;;;45.08;33.42;;;24.60;96.70;;;;;;1937812;73;21163;-70
2023/02/04 00:58:18;;;;;;;45.65;33.02;;;24.70;96.60;;;;;;1926058;73;21147;-71
2023/02/04 01:00:49;;;;;;;40.40;33.40;;;24.70;96.50;;;;;;1910120;73;21218;-72
2023/02/04 01:03:21;;;;;;;43.63;32.95;;;24.70;96.40;;;;;;1892893;74;21525;-71
2023/02/04 01:05:52;;;;;;;41.65;32.28;;;24.70;96.40;;;;;;1911471;73;21089;-73
2023/02/04 01:08:23;;;;;;;44.88;32.00;;;24.70;96.30;;;;;;1868959;75;21195;-71
2023/02/04 01:10:56;;;;;;;40.10;31.45;;;24.80;96.20;;;;;;1922769;73;21178;-71
2023/02/04 01:13:46;;;;;;;35.38;29.35;;;24.80;96.10;;;;;;1874983;75;21074;-72
2023/02/04 01:16:20;;;;;;;39.75;31.65;;;24.80;95.90;;;;;;1917957;73;21128;-71
2023/02/04 01:18:52;;;;;;;42.00;29.92;;;24.90;95.90;;;;;;1916480;73;21193;-71
2023/02/04 01:21:24;;;;;;;36.75;29.95;;;24.90;95.90;;;;;;1923311;74;21132;-72
2023/02/04 01:23:55;;;;;;;39.27;30.90;;;24.90;95.80;;;;;;1921785;72;21114;-70
2023/02/04 01:26:26;;;;;;;36.60;30.65;;;24.90;95.80;;;;;;1933651;73;21221;-70
2023/02/04 01:28:57;;;;;;;43.33;32.42;;;25.00;95.80;;;;;;1937642;73;21115;-72
2023/02/04 01:31:30;;;;;;;39.92;31.35;;;25.00;95.70;;;;;;1933291;73;21716;-73
2023/02/04 01:34:02;;;;;;;42.17;33.53;;;25.00;95.70;;;;;;1908029;74;21657;-73
2023/02/04 01:36:33;;;;;;;39.88;30.55;;;25.00;95.60;;;;;;1922126;74;21136;-71
2023/02/04 01:39:05;;;;;;;34.35;27.25;;;25.10;95.60;;;;;;1913428;74;21197;-72
2023/02/04 01:41:36;;;;;;;40.00;28.23;;;25.10;95.60;;;;;;1916040;73;21172;-73
2023/02/04 01:44:07;;;;;;;37.98;29.63;;;25.10;95.50;;;;;;1915145;73;21186;-73
2023/02/04 01:46:46;;;;;;;42.35;31.90;;;25.10;95.40;;;;;;1917969;73;21065;-73
2023/02/04 01:49:15;;;;;;;51.65;37.20;;;25.20;95.40;;;;;;1914032;74;21143;-73
2023/02/04 01:51:46;;;;;;;51.20;35.80;;;25.20;95.20;;;;;;1919701;74;21128;-72
2023/02/04 01:54:19;;;;;;;43.75;31.75;;;25.20;95.20;;;;;;1916995;74;21195;-72
2023/02/04 01:56:50;;;;;;;41.83;30.77;;;25.30;95.20;;;;;;1915600;74;21159;-73
2023/02/04 01:59:26;;;;;;;37.23;30.10;;;25.30;95.20;;;;;;1915448;74;21112;-74
2023/02/04 02:01:54;;;;;;;38.70;29.40;;;25.30;95.20;;;;;;1919865;74;21623;-73
2023/02/04 02:04:34;;;;;;;36.45;28.57;;;25.30;95.20;;;;;;1894908;74;21639;-73
2023/02/04 02:07:08;;;;;;;34.00;26.65;;;25.30;95.20;;;;;;1913675;73;21073;-73
2023/02/04 02:09:39;;;;;;;35.13;26.87;;;25.30;95.10;;;;;;1917144;74;21232;-76
2023/02/04 02:12:10;;;;;;;34.35;25.75;;;25.30;95.10;;;;;;1912492;73;21248;-73
2023/02/04 02:14:41;;;;;;;34.92;26.00;;;25.30;95.00;;;;;;1919255;73;21118;-74
2023/02/04 02:17:12;;;;;;;33.30;27.45;;;25.30;95.10;;;;;;1936419;73;21195;-73
2023/02/04 02:19:44;;;;;;;35.52;26.57;;;25.30;95.10;;;;;;1935270;73;21151;-73
2023/02/04 02:22:32;;;;;;;36.88;27.73;;;25.30;95.20;;;;;;1894477;73;21171;-72
2023/02/04 02:25:04;;;;;;;32.70;24.45;;;25.30;95.20;;;;;;1901296;75;21841;-74
2023/02/04 02:27:36;;;;;;;34.63;24.80;;;25.30;95.20;;;;;;1874335;76;21129;-72
2023/02/04 02:30:09;;;;;;;37.83;25.72;;;25.30;95.20;;;;;;1868535;76;21641;-72
2023/02/04 02:32:46;;;;;;;32.13;23.50;;;25.40;95.20;;;;;;1866349;76;21672;-72
2023/02/04 02:35:21;;;;;;;27.27;23.57;;;25.40;95.20;;;;;;1866036;74;21137;-74
2023/02/04 02:37:53;;;;;;;26.35;21.50;;;25.40;95.10;;;;;;1879676;76;21134;-72
2023/02/04 02:40:32;;;;;;;27.82;19.25;;;25.40;95.00;;;;;;1876920;75;21135;-73
2023/02/04 02:43:04;;;;;;;25.82;19.23;;;25.40;94.90;;;;;;1861126;76;21109;-71
2023/02/04 02:45:35;;;;;;;26.82;20.50;;;25.40;94.90;;;;;;1866207;76;21620;-72
2023/02/04 02:48:06;;;;;;;22.65;18.52;;;25.40;95.00;;;;;;1869736;75;21186;-72
2023/02/04 02:50:37;;;;;;;24.10;17.37;;;25.50;95.00;;;;;;1859311;76;21117;-71
2023/02/04 02:53:14;;;;;;;28.52;17.17;;;25.50;94.90;;;;;;1873793;76;21140;-71
2023/02/04 02:55:46;;;;;;;24.43;17.48;;;25.60;94.80;;;;;;1866593;75;21273;-72
2023/02/04 02:58:25;;;;;;;22.95;17.12;;;25.60;94.60;;;;;;1855201;76;21129;-72
2023/02/04 03:00:57;;;;;;;19.95;15.78;;;25.70;94.60;;;;;;1858105;76;21565;-71
2023/02/04 03:03:30;;;;;;;20.80;14.90;;;25.70;94.40;;;;;;1863881;76;21595;-73
2023/02/04 03:06:06;;;;;;;24.15;16.00;;;25.80;94.10;;;;;;1866095;75;21125;-72
2023/02/04 03:08:38;;;;;;;21.33;15.80;;;25.90;94.20;;;;;;1872946;76;21199;-73
2023/02/04 03:11:09;;;;;;;24.63;16.48;;;25.90;94.10;;;;;;1871529;74;21153;-72
2023/02/04 03:13:41;;;;;;;24.52;18.40;;;26.00;94.00;;;;;;1871305;74;21109;-72
2023/02/04 03:16:12;;;;;;;28.42;19.17;;;26.00;94.00;;;;;;1865356;74;21514;-72
2023/02/04 03:18:44;;;;;;;26.10;20.60;;;26.00;93.90;;;;;;1865484;76;21558;-72
2023/02/04 03:21:24;;;;;;;28.50;21.57;;;26.10;93.80;;;;;;1875440;74;21641;-73
2023/02/04 03:23:55;;;;;;;29.60;22.35;;;26.00;93.80;;;;;;1885626;74;21180;-74
2023/02/04 03:26:27;;;;;;;29.50;23.07;;;26.00;93.80;;;;;;1889983;74;21193;-74
2023/02/04 03:29:01;;;;;;;27.07;20.77;;;26.00;93.90;;;;;;1892113;74;21248;-73
2023/02/04 03:31:32;;;;;;;27.37;19.95;;;26.00;93.90;;;;;;1891092;74;21096;-74
2023/02/04 03:34:03;;;;;;;23.30;17.60;;;26.00;93.70;;;;;;1898594;74;21203;-73
2023/02/04 03:36:35;;;;;;;23.73;19.12;;;26.00;93.70;;;;;;1886998;74;21175;-75
2023/02/04 03:39:06;;;;;;;27.22;20.55;;;25.90;93.70;;;;;;1886740;74;21188;-73
2023/02/04 03:41:37;;;;;;;28.20;21.57;;;25.90;93.80;;;;;;1884973;74;21236;-74
2023/02/04 03:44:08;;;;;;;30.88;21.68;;;25.90;94.00;;;;;;1887372;75;21149;-74
2023/02/04 03:46:40;;;;;;;31.20;21.77;;;25.90;94.00;;;;;;1885079;74;21609;-74
2023/02/04 03:49:11;;;;;;;26.65;20.35;;;25.80;93.90;;;;;;1886825;75;21121;-72
2023/02/04 03:51:42;;;;;;;26.55;20.75;;;25.80;93.90;;;;;;1891858;74;21129;-74
2023/02/04 03:54:14;;;;;;;27.10;20.35;;;25.80;94.00;;;;;;1894520;75;21209;-72
2023/02/04 03:56:45;;;;;;;30.60;21.45;;;25.80;94.10;;;;;;1893242;74;21117;-72
2023/02/04 03:59:16;;;;;;;28.55;20.85;;;25.80;94.10;;;;;;1883552;74;21872;-72
2023/02/04 04:01:48;;;;;;;27.70;21.12;;;25.90;94.20;;;;;;1891198;75;21110;-73
2023/02/04 04:04:21;;;;;;;28.35;21.95;;;26.00;94.20;;;;;;1888653;75;21262;-73
2023/02/04 04:06:53;;;;;;;26.62;19.52;;;26.10;94.00;;;;;;1891436;74;21172;-73
2023/02/04 04:09:28;;;;;;;25.97;19.48;;;26.30;93.70;;;;;;1887331;75;21187;-74
2023/02/04 04:11:56;;;;;;;28.07;20.23;;;26.40;93.30;;;;;;1888645;74;21082;-72
2023/02/04 04:14:27;;;;;;;25.48;20.27;;;26.50;93.30;;;;;;1883645;75;21307;-73
2023/02/04 04:16:58;;;;;;;24.05;18.05;;;26.50;93.10;;;;;;1885614;74;21199;-72
2023/02/04 04:19:31;;;;;;;24.10;18.07;;;26.60;93.00;;;;;;1890340;74;21212;-73
2023/02/04 04:22:02;;;;;;;25.10;17.55;;;26.70;92.80;;;;;;1881611;74;21109;-72
2023/02/04 04:24:33;;;;;;;23.65;17.67;;;26.90;92.70;;;;;;1858671;76;21144;-72
2023/02/04 04:27:04;;;;;;;25.43;17.70;;;27.00;92.50;;;;;;1889608;75;21113;-74
2023/02/04 04:29:38;;;;;;;24.90;18.65;;;27.10;92.10;;;;;;1895845;74;21106;-74
2023/02/04 04:32:08;;;;;;;20.48;14.95;;;27.20;92.00;;;;;;1881387;75;21161;-74
2023/02/04 04:34:40;;;;;;;16.87;12.80;;;27.40;91.40;;;;;;1868185;76;21207;-74
2023/02/04 04:37:12;;;;;;;19.23;14.33;;;27.50;91.10;;;;;;1893547;75;21109;-74
2023/02/04 04:39:42;;;;;;;20.52;14.93;;;27.50;91.00;;;;;;1863760;76;21145;-74
2023/02/04 04:42:13;;;;;;;20.88;15.35;;;27.50;91.00;;;;;;1891383;75;21059;-74
2023/02/04 04:44:44;;;;;;;25.75;16.70;;;27.50;91.10;;;;;;1885931;75;21149;-73
2023/02/04 04:47:15;;;;;;;19.67;15.43;;;27.50;90.80;;;;;;1876011;75;21187;-75
2023/02/04 04:49:46;;;;;;;17.67;15.03;;;27.40;90.70;;;;;;1896630;74;21526;-73
2023/02/04 04:52:17;;;;;;;29.07;21.48;;;27.30;90.80;;;;;;1899001;75;21051;-72
2023/02/04 04:54:49;;;;;;;28.65;20.10;;;27.30;91.00;;;;;;1895082;75;21246;-73
2023/02/04 04:57:20;;;;;;;24.00;17.77;;;27.30;91.10;;;;;;1866712;76;21165;-73
2023/02/04 04:59:51;;;;;;;24.45;18.60;;;27.30;91.10;;;;;;1891652;74;22037;-74
2023/02/04 05:02:22;;;;;;;27.37;19.77;;;27.30;91.10;;;;;;1870381;76;21070;-74
2023/02/04 05:04:53;;;;;;;25.92;19.37;;;27.20;91.00;;;;;;1890159;74;21270;-74
2023/02/04 05:07:27;;;;;;;23.45;18.25;;;27.30;91.00;;;;;;1841911;76;21163;-74
2023/02/04 05:09:58;;;;;;;25.70;17.75;;;27.30;90.90;;;;;;1873596;76;21573;-74
2023/02/04 05:12:29;;;;;;;27.32;18.98;;;27.30;90.80;;;;;;1893136;75;21518;-73
2023/02/04 05:15:01;;;;;;;25.82;18.67;;;27.40;91.00;;;;;;1886969;75;21621;-73
2023/02/04 05:17:32;;;;;;;27.77;19.92;;;27.40;91.10;;;;;;1882045;75;21098;-74
2023/02/04 05:20:03;;;;;;;22.82;18.02;;;27.50;91.00;;;;;;1894789;75;21193;-74
2023/02/04 05:22:34;;;;;;;24.02;18.80;;;27.70;91.00;;;;;;1891935;74;21530;-73
2023/02/04 05:25:06;;;;;;;26.12;19.55;;;27.80;90.80;;;;;;1894515;74;21181;-73
2023/02/04 05:27:37;;;;;;;26.23;18.87;;;28.00;90.30;;;;;;1885604;75;21125;-74
2023/02/04 05:30:10;;;;;;;24.90;17.32;;;28.10;90.00;;;;;;1894262;74;22097;-73
2023/02/04 05:32:44;;;;;;;27.00;17.40;;;28.20;89.70;;;;;;1891255;74;21209;-73
2023/02/04 05:35:15;;;;;;;25.27;16.05;;;28.20;90.00;;;;;;1875365;75;21165;-72
2023/02/04 05:37:46;;;;;;;19.92;14.83;;;28.20;89.10;;;;;;1865302;76;21220;-73
2023/02/04 05:40:18;;;;;;;21.82;16.17;;;28.20;89.10;;;;;;1889489;75;21164;-86
2023/02/04 05:42:51;;;;;;;20.85;15.00;;;28.30;89.20;;;;;;1893759;74;21169;-85
2023/02/04 05:45:22;;;;;;;20.70;14.30;;;28.30;89.00;;;;;;1862578;76;21145;-84
2023/02/04 05:47:53;;;;;;;21.42;14.38;;;28.30;89.20;;;;;;1892390;74;21133;-87
2023/02/04 05:50:27;;;;;;;20.85;13.85;;;28.20;89.00;;;;;;1877466;75;21152;-87
2023/02/04 05:53:00;;;;;;;17.50;13.00;;;28.20;88.80;;;;;;1884638;74;21279;-87
2023/02/04 05:55:32;;;;;;;17.85;12.68;;;28.20;88.50;;;;;;1871815;76;21129;-73
2023/02/04 05:58:05;;;;;;;19.62;14.28;;;28.30;88.30;;;;;;1894057;75;21590;-73
2023/02/04 06:00:37;;;;;;;17.98;12.47;;;28.30;88.20;;;;;;1895689;74;21168;-72
2023/02/04 06:03:08;;;;;;;20.60;13.75;;;28.30;88.40;;;;;;1895028;74;21105;-72
2023/02/04 06:05:40;;;;;;;18.87;12.75;;;28.30;88.00;;;;;;1891825;75;21120;-71
2023/02/04 06:08:10;;;;;;;20.05;12.35;;;28.40;87.50;;;;;;1892180;74;21129;-72
2023/02/04 06:10:44;;;;;;;18.77;11.63;;;28.40;87.20;;;;;;1889078;74;21996;-73
2023/02/04 06:13:15;;;;;;;17.10;11.65;;;28.50;87.10;;;;;;1891173;74;21138;-73
2023/02/04 06:15:46;;;;;;;15.20;11.57;;;28.50;87.10;;;;;;1891268;75;21208;-72
2023/02/04 06:18:20;;;;;;;17.02;11.35;;;28.50;86.90;;;;;;1865135;76;21147;-73
2023/02/04 06:20:54;;;;;;;17.73;11.60;;;28.50;87.20;;;;;;1886500;75;21226;-71
2023/02/04 06:23:28;;;;;;;17.25;11.35;;;28.50;86.60;;;;;;1893546;74;21100;-72
2023/02/04 06:25:59;;;;;;;13.83;9.78;;;28.60;86.70;;;;;;1920008;73;21154;-71
2023/02/04 06:28:31;;;;;;;13.25;10.08;;;28.60;87.00;;;;;;1885526;74;21175;-71
2023/02/04 06:31:01;;;;;;;13.20;9.38;;;28.60;86.90;;;;;;1898779;74;21127;-72
2023/02/04 06:33:33;;;;;;;14.85;9.73;;;28.60;86.70;;;;;;1903091;74;21128;-74
2023/02/04 06:36:04;;;;;;;16.05;9.85;;;28.60;86.70;;;;;;1902750;74;21587;-73
2023/02/04 06:38:36;;;;;;;14.00;9.63;;;28.60;86.70;;;;;;1920200;73;21227;-75
2023/02/04 06:41:09;;;;;;;14.50;9.58;;;28.60;86.70;;;;;;1838283;76;22057;-72
2023/02/04 06:43:40;;;;;;;14.50;9.35;;;28.70;86.50;;;;;;1897739;74;21143;-72
2023/02/04 06:46:11;;;;;;;13.50;9.45;;;28.80;86.20;;;;;;1894280;74;21096;-71
2023/02/04 06:48:42;;;;;;;14.75;9.55;;;28.80;86.00;;;;;;1897885;74;21163;-71
2023/02/04 06:51:18;;;;;;;12.33;9.53;;;28.90;85.90;;;;;;1902938;74;21171;-73
2023/02/04 06:53:51;;;;;;;15.23;9.55;;;28.90;85.40;;;;;;1923358;73;21169;-72
2023/02/04 06:56:22;;;;;;;13.85;9.30;;;28.90;85.50;;;;;;1922748;73;21112;-71
2023/02/04 06:58:53;;;;;;;12.70;9.70;;;29.00;84.50;;;;;;1922094;73;22325;-72
2023/02/04 07:01:24;;;;;;;11.73;9.50;;;29.10;85.20;;;;;;1925802;73;21685;-72
2023/02/04 07:03:55;;;;;;;16.20;10.13;;;29.10;85.20;;;;;;1924732;73;21181;-73
2023/02/04 07:06:26;;;;;;;17.00;9.73;;;29.20;84.30;;;;;;1922454;73;21135;-74
2023/02/04 07:08:57;;;;;;;27.95;11.15;;;29.20;84.20;;;;;;1905939;74;21124;-72
2023/02/04 07:11:29;;;;;;;15.45;10.25;;;29.30;84.20;;;;;;1907151;74;21166;-71
2023/02/04 07:14:02;;;;;;;14.70;9.58;;;;;;;;;;1905726;74;21109;-72
2023/02/04 07:16:34;;;;;;;15.65;10.25;;;29.50;83.20;;;;;;1903046;74;21140;-74
2023/02/04 07:19:05;;;;;;;22.58;11.65;;;29.60;83.60;;;;;;1899099;74;21179;-72
2023/02/04 07:21:36;;;;;;;13.72;10.43;;;29.60;82.90;;;;;;1901667;74;21182;-71
2023/02/04 07:24:09;;;;;;;14.05;9.85;;;29.70;82.50;;;;;;1908908;73;21180;-72
2023/02/04 07:26:40;;;;;;;12.95;10.40;;;29.70;82.80;;;;;;1867009;75;21062;-72
2023/02/04 07:29:11;;;;;;;15.58;10.28;;;29.80;82.20;;;;;;1916851;73;21643;-73
2023/02/04 07:31:44;;;;;;;14.80;10.90;;;29.80;81.60;;;;;;1924428;73;21173;-74
2023/02/04 07:34:24;;;;;;;17.75;10.58;;;29.80;81.90;;;;;;1914786;73;21104;-73
2023/02/04 07:37:01;;;;;;;16.95;10.85;;;29.70;81.50;;;;;;1911331;73;21124;-74
2023/02/04 07:39:32;;;;;;;14.05;11.03;;;29.70;81.70;;;;;;1912469;73;21112;-73
2023/02/04 07:42:06;;;;;;;12.80;9.75;;;29.70;82.70;;;;;;1912249;73;21131;-73
2023/02/04 07:44:36;;;;;;;13.48;10.28;;;29.70;82.30;;;;;;1915519;74;21142;-73
2023/02/04 07:47:07;;;;;;;14.50;11.05;;;29.60;82.20;;;;;;1904650;73;21165;-73
2023/02/04 07:49:38;;;;;;;13.88;9.90;;;29.60;82.60;;;;;;1882300;74;21145;-73
2023/02/04 07:52:11;;;;;;;12.95;9.90;;;29.50;82.60;;;;;;1908263;73;21144;-72
2023/02/04 07:54:42;;;;;;;15.18;10.85;;;29.40;83.20;;;;;;1909491;73;21080;-72
2023/02/04 07:57:15;;;;;;;18.12;10.30;;;29.30;82.60;;;;;;1847743;76;21504;-73
2023/02/04 07:59:48;;;;;;;17.07;10.82;;;29.30;82.60;;;;;;1881145;75;21729;-73
2023/02/04 08:02:19;;;;;;;13.60;10.58;;;29.30;83.00;;;;;;1842868;76;21150;-72
2023/02/04 08:04:51;;;;;;;17.60;10.30;;;29.20;83.10;;;;;;1842737;76;21195;-73
2023/02/04 08:07:24;;;;;;;13.75;10.03;;;29.20;83.30;;;;;;1880027;75;21156;-73
2023/02/04 08:09:55;;;;;;;17.80;10.28;;;29.20;83.40;;;;;;1850219;76;21579;-73
2023/02/04 08:12:32;;;;;;;16.65;10.75;;;29.20;83.40;;;;;;1873198;75;21165;-72
2023/02/04 08:15:05;;;;;;;14.65;9.98;;;29.20;83.70;;;;;;1844238;77;21139;-72
2023/02/04 08:17:37;;;;;;;15.55;10.00;;;29.20;83.70;;;;;;1819103;76;21162;-72
2023/02/04 08:20:09;;;;;;;15.30;10.70;;;29.20;83.70;;;;;;1871323;75;21274;-72
2023/02/04 08:22:40;;;;;;;13.78;10.03;;;29.10;84.00;;;;;;1840965;76;21150;-73
2023/02/04 08:25:12;;;;;;;14.28;9.83;;;29.10;84.10;;;;;;1866661;75;21176;-72
2023/02/04 08:27:46;;;;;;;16.55;10.13;;;29.10;83.90;;;;;;1853337;75;21178;-71
2023/02/04 08:30:18;;;;;;;15.23;10.90;;;29.10;84.00;;;;;;1902022;74;21223;-71
2023/02/04 08:32:49;;;;;;;14.35;10.15;;;29.10;84.10;;;;;;1877107;74;21629;-73
2023/02/04 08:35:20;;;;;;;16.12;10.25;;;29.10;84.10;;;;;;1907249;73;21150;-72
2023/02/04 08:37:51;;;;;;;14.50;10.03;;;29.00;84.30;;;;;;1909305;73;21198;-72
2023/02/04 08:40:25;;;;;;;15.23;10.00;;;29.00;84.40;;;;;;1902954;73;21169;-73
2023/02/04 08:42:55;;;;;;;13.43;9.63;;;29.00;84.50;;;;;;1890231;74;21183;-72
2023/02/04 08:45:34;;;;;;;15.70;9.63;;;29.00;84.30;;;;;;1849464;75;21088;-72
2023/02/04 08:48:05;;;;;;;14.40;9.80;;;29.00;84.40;;;;;;1875314;75;21112;-70
2023/02/04 08:50:37;;;;;;;15.90;10.30;;;28.90;84.30;;;;;;1858053;75;21207;-72
2023/02/04 08:53:11;;;;;;;13.38;10.13;;;28.90;84.30;;;;;;1859166;75;21188;-71
2023/02/04 08:55:43;;;;;;;15.20;9.98;;;28.90;85.40;;;;;;1847039;75;21614;-72
2023/02/04 08:58:14;;;;;;;11.22;9.05;;;28.80;84.50;;;;;;1916781;73;21108;-73
2023/02/04 09:00:44;;;;;;;16.40;10.32;;;28.80;84.70;;;;;;1900598;73;21104;-73
2023/02/04 09:03:15;;;;;;;14.58;9.90;;;28.80;84.50;;;;;;1901497;74;21112;-73
2023/02/04 09:05:51;;;;;;;13.70;9.65;;;28.70;84.40;;;;;;1900124;73;21185;-74
2023/02/04 09:08:30;;;;;;;13.80;9.95;;;28.70;84.40;;;;;;1906220;73;21168;-72
2023/02/04 09:11:04;;;;;;;16.48;10.78;;;28.70;84.60;;;;;;1905209;73;21088;-73
2023/02/04 09:13:35;;;;;;;13.53;9.30;;;28.70;84.60;;;;;;1900293;75;21224;-72
2023/02/04 09:16:09;;;;;;;15.68;10.18;;;28.70;84.50;;;;;;1908658;73;21143;-72
2023/02/04 09:18:40;;;;;;;18.20;13.48;;;28.70;84.40;;;;;;1905581;73;21183;-74
2023/02/04 09:21:11;;;;;;;17.20;11.95;;;28.70;84.40;;;;;;1905596;73;21152;-73
2023/02/04 09:23:47;;;;;;;15.68;11.48;;;28.70;84.40;;;;;;1898283;73;21162;-72
2023/02/04 09:26:18;;;;;;;11.88;9.55;;;28.80;84.40;;;;;;1909773;73;21201;-73
2023/02/04 09:28:50;;;;;;;16.07;11.50;;;28.80;83.80;;;;;;1906874;73;21132;-73
2023/02/04 09:31:24;;;;;;;14.70;10.75;;;28.80;83.90;;;;;;1903719;73;21179;-72
2023/02/04 09:33:58;;;;;;;18.42;11.60;;;28.80;83.90;;;;;;1886238;75;21072;-72
2023/02/04 09:36:31;;;;;;;15.65;10.30;;;28.80;84.10;;;;;;1898027;74;21264;-72
2023/02/04 09:39:08;;;;;;;15.00;10.40;;;28.80;84.40;;;;;;1906371;73;21123;-72
2023/02/04 09:41:40;;;;;;;20.08;11.78;;;28.80;84.40;;;;;;1911257;73;21100;-72
2023/02/04 09:44:15;;;;;;;16.07;10.50;;;28.80;84.50;;;;;;1910273;73;21753;-72
2023/02/04 09:46:54;;;;;;;17.02;12.58;;;28.70;84.20;;;;;;1892318;74;21664;-72
2023/02/04 09:49:26;;;;;;;19.32;11.90;;;28.70;83.80;;;;;;1904826;74;21261;-72
2023/02/04 09:51:57;;;;;;;13.93;10.30;;;28.70;84.10;;;;;;1904016;75;21198;-72
2023/02/04 09:54:28;;;;;;;16.20;11.90;;;28.70;84.10;;;;;;1910935;73;21167;-71
2023/02/04 09:56:59;;;;;;;16.55;12.73;;;28.70;84.20;;;;;;1904516;73;21699;-72
2023/02/04 09:59:30;;;;;;;17.30;12.55;;;28.70;84.50;;;;;;1902798;74;21583;-72
2023/02/04 10:02:08;;;;;;;15.80;10.85;;;28.60;84.50;;;;;;1909256;73;21124;-72
2023/02/04 10:04:44;;;;;;;16.55;10.65;;;28.60;84.40;;;;;;1901677;73;21195;-73
2023/02/04 10:07:17;;;;;;;77.67;18.02;;;28.60;84.30;;;;;;1906385;73;21711;-75
2023/02/04 10:09:50;;;;;;;17.52;11.90;;;28.60;84.50;;;;;;1903566;73;21189;-73
2023/02/04 10:12:21;;;;;;;16.42;11.33;;;28.50;84.30;;;;;;1911748;73;21262;-73
2023/02/04 10:14:55;;;;;;;20.17;11.50;;;28.50;84.20;;;;;;1903451;73;21265;-74
2023/02/04 10:17:26;;;;;;;17.92;11.30;;;28.50;85.10;;;;;;1906060;73;21146;-72
2023/02/04 10:19:57;;;;;;;18.67;11.30;;;28.50;84.50;;;;;;1908648;73;21153;-72
2023/02/04 10:22:35;;;;;;;16.85;11.48;;;28.50;84.50;;;;;;1906791;73;21179;-73
2023/02/04 10:25:14;;;;;;;15.25;11.70;;;28.50;85.60;;;;;;1903309;73;21220;-73
2023/02/04 10:27:56;;;;;;;16.23;12.47;;;28.40;84.50;;;;;;1872369;75;21224;-73
2023/02/04 10:30:34;;;;;;;18.57;12.90;;;28.40;84.30;;;;;;1861355;75;21095;-72
2023/02/04 10:33:30;;;;;;;20.68;14.25;;;28.40;84.40;;;;;;1861273;75;21217;-72
2023/02/04 10:35:58;;;;;;;21.50;16.20;;;28.40;84.40;;;;;;1870748;75;21621;-82
2023/02/04 10:38:28;;;;;;;19.07;14.07;;;28.40;84.50;;;;;;1878673;75;21072;-81
2023/02/04 10:41:06;;;;;;;20.55;14.87;;;28.40;84.60;;;;;;1875634;75;21686;-80
2023/02/04 10:43:37;;;;;;;24.57;13.03;;;28.40;84.60;;;;;;1871663;75;21682;-82
2023/02/04 10:46:08;;;;;;;23.22;14.05;;;28.30;84.40;;;;;;1870822;75;21144;-82
2023/02/04 10:48:42;;;;;;;23.62;15.43;;;28.30;84.50;;;;;;1876089;75;21190;-82
2023/02/04 10:51:32;;;;;;;21.15;13.08;;;28.30;84.40;;;;;;1854605;75;21693;-82
2023/02/04 10:56:51;;;;;;;20.17;13.72;;;28.30;84.80;;;;;;1874239;75;21099;-81
2023/02/04 10:59:26;;;;;;;22.93;14.55;;;28.30;84.90;;;;;;1866291;75;21109;-81
2023/02/04 11:01:58;;;;;;;18.52;13.90;;;28.20;85.10;;;;;;1870564;75;21143;-81
2023/02/04 11:04:29;;;;;;;25.05;15.05;;;28.20;85.30;;;;;;1867577;75;21080;-81
2023/02/04 11:07:00;;;;;;;21.25;15.90;;;28.20;85.50;;;;;;1873347;75;21190;-80
2023/02/04 11:09:31;;;;;;;20.12;15.38;;;28.20;85.80;;;;;;1887269;75;21164;-82
2023/02/04 11:12:02;;;;;;;22.20;16.50;;;28.20;86.00;;;;;;1870031;75;21172;-82
2023/02/04 11:14:33;;;;;;;21.70;17.42;;;28.10;86.10;;;;;;1873328;75;21225;-81
2023/02/04 11:17:04;;;;;;;26.57;19.32;;;28.10;86.30;;;;;;1865170;75;21180;-81
2023/02/04 11:19:38;;;;;;;26.27;19.32;;;28.10;86.40;;;;;;1866072;76;21140;-81
2023/02/04 11:22:23;;;;;;;27.90;20.73;;;28.10;86.60;;;;;;1868956;75;21235;-83
2023/02/04 11:24:57;;;;;;;40.43;29.12;;;28.00;87.10;;;;;;1870594;75;21197;-81
2023/02/04 11:27:40;;;;;;;47.03;31.95;;;28.00;87.50;;;;;;1849631;76;21186;-81
2023/02/04 11:30:22;;;;;;;38.85;27.65;;;28.00;87.60;;;;;;1909722;73;21144;-83
2023/02/04 11:33:04;;;;;;;39.33;26.73;;;27.90;87.70;;;;;;1912231;73;21158;-82
2023/02/04 11:35:38;;;;;;;28.70;19.95;;;27.90;88.20;;;;;;1910582;73;21235;-82
2023/02/04 11:38:28;;;;;;;29.27;18.37;;;27.80;88.40;;;;;;1914362;73;21271;-82
2023/02/04 11:41:00;;;;;;;23.35;17.00;;;27.80;88.50;;;;;;1913113;73;21169;-82
2023/02/04 11:43:37;;;;;;;23.05;15.40;;;27.80;88.60;;;;;;1920649;73;21081;-79
2023/02/04 11:46:20;;;;;;;26.30;15.65;;;27.70;88.30;;;;;;1916593;73;21118;-82
2023/02/04 11:48:55;;;;;;;19.42;13.43;;;27.70;88.60;;;;;;1907283;73;21712;-80
2023/02/04 11:51:34;;;;;;;21.60;13.85;;;27.70;89.10;;;;;;1910645;73;21134;-82
2023/02/04 11:54:05;;;;;;;22.85;15.25;;;27.60;89.20;;;;;;1914038;73;21156;-84
2023/02/04 11:56:37;;;;;;;20.27;13.13;;;27.60;89.30;;;;;;1912051;73;21267;-82
2023/02/04 11:59:10;;;;;;;18.27;13.70;;;27.50;90.00;;;;;;1916365;73;21156;-82
2023/02/04 12:01:41;;;;;;;17.92;13.10;;;27.50;90.10;;;;;;1909928;73;21550;-79
2023/02/04 12:04:23;;;;;;;19.20;13.50;;;27.50;90.30;;;;;;1901428;73;21164;-80
2023/02/04 12:07:04;;;;;;;15.75;11.97;;;27.40;90.40;;;;;;1908116;73;21152;-80
2023/02/04 12:09:40;;;;;;;21.07;14.05;;;27.40;90.60;;;;;;1917301;73;21620;-81
2023/02/04 12:12:11;;;;;;;22.85;13.60;;;27.40;90.90;;;;;;1907843;73;21183;-81
2023/02/04 12:14:42;;;;;;;21.17;14.13;;;27.30;91.40;;;;;;1904745;73;21116;-81
2023/02/04 12:17:20;;;;;;;19.80;14.43;;;27.30;91.20;;;;;;1915678;73;21869;-79
2023/02/04 12:19:52;;;;;;;20.90;14.90;;;27.30;91.30;;;;;;1909021;73;21602;-79
2023/02/04 12:22:23;;;;;;;18.23;14.13;;;27.30;91.70;;;;;;1915914;73;21221;-81
2023/02/04 12:24:54;;;;;;;21.12;15.43;;;27.20;91.90;;;;;;1912576;73;21149;-80
2023/02/04 12:27:25;;;;;;;20.75;16.20;;;27.10;92.00;;;;;;1905795;73;21367;-80
2023/02/04 12:29:57;;;;;;;19.98;15.50;;;27.10;92.20;;;;;;1913264;73;21667;-80
2023/02/04 12:32:28;;;;;;;19.85;15.15;;;27.10;92.00;;;;;;1912152;73;21240;-81
2023/02/04 12:34:59;;;;;;;23.00;15.98;;;27.10;92.00;;;;;;1912132;73;21576;-81
2023/02/04 12:37:31;;;;;;;23.57;15.90;;;27.10;92.10;;;;;;1918403;73;21080;-81
2023/02/04 12:40:02;;;;;;;23.02;15.85;;;27.10;92.10;;;;;;1913984;73;21560;-80
2023/02/04 12:42:34;;;;;;;21.37;15.32;;;27.10;92.10;;;;;;1920595;73;21168;-82
2023/02/04 12:45:06;;;;;;;25.17;17.52;;;27.20;92.20;;;;;;1921956;73;21160;-82
2023/02/04 12:47:38;;;;;;;26.87;18.10;;;27.10;92.40;;;;;;1917310;73;21081;-81
2023/02/04 12:50:10;;;;;;;28.23;17.87;;;27.10;92.40;;;;;;1911101;73;21049;-79
2023/02/04 12:52:41;;;;;;;27.93;18.23;;;27.10;92.50;;;;;;1924889;73;21182;-81
2023/02/04 12:55:12;;;;;;;26.97;19.00;;;27.00;92.70;;;;;;1915039;73;21663;-81
2023/02/04 12:57:43;;;;;;;27.80;19.80;;;27.00;92.90;;;;;;1920372;74;21222;-83